Lima, MT (59739)

3:27 AM MDT on July 28, 2016 (GMT -0600)
Dillon | | Change Station

Elev 5240 ft 45.26 °N, 112.55 °W | Updated 34 minutes ago

Clear
Clear
56 °F
Feels Like 56 °F
N
5
Wind Variable Wind from SSE

Today
High -- | Low -- °F
--% Chance of Precip.
Yesterday
High -- | Low -- °F
Precip. -- in
Pressure 30.04 in
Visibility 10.0 miles
Clouds Clear
Dew Point 49 °F
Humidity 77%
Rainfall 0.00 in
Snow Depth Not available.
6:11 AM 8:59 PM
Waning Crescent, 34% visible
METAR KDLN 280853Z AUTO 15004KT 10SM CLR 13/09 A3020 RMK AO2 SLP171 T01330094 50003
Pressure 30.04 in
Visibility 10.0 miles
Clouds Clear
Dew Point 49 °F
Humidity 77%
Rainfall 0.00 in
Snow Depth Not available.
6:11 AM 8:59 PM
Waning Crescent, 34% visible
METAR KDLN 280853Z AUTO 15004KT 10SM CLR 13/09 A3020 RMK AO2 SLP171 T01330094 50003

10-Day Weather Forecast

Almanac

Astronomy

Jul. 28, 2016 Rise Set
Actual Time
Civil Twilight
Nautical Twilight
Astronomical Twilight
Moon
Length of Visible Light
Length of Day
Tomorrow will be .
, % of the Moon is Illuminated

Today's Extremes

State Highs State Lows

Community

WunderPhotos

Upload Photos

1,928,070 photos uploaded!

WunderBlog® & News

Nearby

Air Quality

  Air Quality AQ Index Pollutant
Not available.

Snow Depth

Station Depth Elevation

Earthquake Activity

City Distance Mag. Time & Date
Minimum magnitude displayed is 2.5.

Coastal Water Temperatures

Place Temperature

Stations

Nearby Weather Stations

Station Location Temp. Windchill Dew Point Humidity Wind Precip. Elev Updated Type
                   

Watches & Warnings

There are currently no watches in effect.